Time;durP1;ratioP1;P1;durP2;ratioP2;P2;SDS_P1;SDS_P2;PMS_P1;PMS_P2;Temp;Humidity;BMP_temperature;BMP_pressure;BME280_temperature;BME280_humidity;BME280_pressure;Samples;Min_cycle;Max_cycle;Signal;HPM_P1;HPM_P2
2023/12/16 00:02:03;;;;;;;75.28;71.63;;;;;;;10.06;66.93;103801.75;5028009;28;20522;-72
2023/12/16 00:04:28;;;;;;;77.07;73.20;;;;;;;10.04;66.92;103804.63;5027015;28;20038;-71
2023/12/16 00:06:54;;;;;;;74.78;70.65;;;;;;;10.06;67.10;103809.88;5019268;28;20034;-72
2023/12/16 00:09:19;;;;;;;77.43;72.78;;;;;;;10.05;66.84;103803.59;5018198;28;20389;-71
2023/12/16 00:11:44;;;;;;;75.10;70.78;;;;;;;10.05;66.97;103816.25;5028771;28;20112;-72
2023/12/16 00:14:10;;;;;;;82.32;78.10;;;;;;;10.05;66.91;103814.41;5020576;28;20086;-71
2023/12/16 00:16:35;;;;;;;75.22;71.72;;;;;;;10.05;66.69;103817.09;5030827;28;20037;-71
2023/12/16 00:19:00;;;;;;;73.65;69.90;;;;;;;10.06;67.01;103812.56;5017427;28;20066;-72
2023/12/16 00:21:26;;;;;;;73.75;70.45;;;;;;;10.06;66.74;103815.25;5014975;28;20425;-71
2023/12/16 00:23:51;;;;;;;78.20;74.15;;;;;;;10.04;67.00;103809.19;5014137;28;20081;-71
2023/12/16 00:26:18;;;;;;;76.13;72.43;;;;;;;10.05;66.89;103810.84;5032715;28;20033;-71
2023/12/16 00:28:43;;;;;;;78.75;74.75;;;;;;;10.05;66.97;103802.75;5018135;28;20030;-71
2023/12/16 00:31:09;;;;;;;79.90;75.22;;;;;;;10.06;67.02;103801.75;5014398;28;20030;-70
2023/12/16 00:33:34;;;;;;;76.60;72.95;;;;;;;10.05;67.07;103794.66;5014707;28;20451;-72
2023/12/16 00:35:59;;;;;;;77.35;73.30;;;;;;;10.05;67.08;103794.66;5019410;28;20034;-71
2023/12/16 00:38:25;;;;;;;74.05;70.35;;;;;;;10.04;67.13;103784.88;5028864;28;20072;-71
2023/12/16 00:40:50;;;;;;;75.65;71.95;;;;;;;10.05;67.08;103800.06;5033142;28;20060;-71
2023/12/16 00:43:15;;;;;;;73.75;69.85;;;;;;;10.05;67.07;103797.34;5034356;28;20048;-71
2023/12/16 00:45:41;;;;;;;77.32;73.43;;;;;;;10.04;67.03;103801.06;5033154;28;20116;-71
2023/12/16 00:48:06;;;;;;;76.63;72.25;;;;;;;10.05;66.84;103792.78;5027881;28;20038;-71
2023/12/16 00:50:32;;;;;;;76.32;71.72;;;;;;;10.05;67.11;103806.28;5014270;28;20037;-72
2023/12/16 00:52:57;;;;;;;76.70;73.18;;;;;;;10.05;67.08;103803.59;5014064;28;20106;-74
2023/12/16 00:55:23;;;;;;;73.82;70.13;;;;;;;10.05;67.11;103805.44;5000265;28;20030;-71
2023/12/16 00:57:48;;;;;;;78.78;74.88;;;;;;;10.05;67.11;103805.44;5015718;28;20195;-71
2023/12/16 01:00:14;;;;;;;79.57;75.20;;;;;;;10.05;67.07;103808.16;5015115;28;20096;-71
2023/12/16 01:02:39;;;;;;;80.05;75.65;;;;;;;10.03;67.07;103807.47;5014265;28;20048;-72
2023/12/16 01:05:05;;;;;;;79.55;75.68;;;;;;;10.02;67.03;103800.38;5013646;28;20494;-72
2023/12/16 01:07:30;;;;;;;75.18;71.68;;;;;;;10.03;66.87;103796.66;5031607;28;20427;-72
2023/12/16 01:09:56;;;;;;;76.50;71.55;;;;;;;10.00;67.19;103800.53;5012682;28;20378;-73
2023/12/16 01:12:21;;;;;;;75.68;71.78;;;;;;;10.00;66.93;103797.84;5012606;28;20042;-70
2023/12/16 01:14:46;;;;;;;73.93;70.40;;;;;;;10.00;67.05;103792.44;5030029;28;20500;-71
2023/12/16 01:17:12;;;;;;;77.38;73.55;;;;;;;10.01;66.99;103798.72;5028923;28;20044;-71
2023/12/16 01:19:37;;;;;;;78.22;74.43;;;;;;;10.00;67.11;103792.44;5028273;28;20363;-72
2023/12/16 01:22:03;;;;;;;73.85;69.97;;;;;;;10.00;67.17;103799.69;5014076;28;20386;-71
2023/12/16 01:24:29;;;;;;;76.10;72.72;;;;;;;9.99;66.85;103792.63;5016269;28;20482;-71
2023/12/16 01:26:54;;;;;;;75.60;71.90;;;;;;;9.99;67.14;103790.75;5014817;28;20112;-71
2023/12/16 01:29:20;;;;;;;73.35;69.88;;;;;;;9.99;67.10;103788.06;5029801;28;20508;-72
2023/12/16 01:31:45;;;;;;;75.85;72.47;;;;;;;9.99;67.15;103787.22;5022039;28;20034;-72
2023/12/16 01:34:11;;;;;;;80.13;76.07;;;;;;;9.97;67.15;103788.22;5012850;28;20116;-70
2023/12/16 01:36:36;;;;;;;72.90;69.43;;;;;;;9.96;67.03;103789.22;5014496;28;20084;-71
2023/12/16 01:39:02;;;;;;;77.85;73.80;;;;;;;9.96;67.21;103786.53;5025476;28;20030;-72
2023/12/16 01:41:27;;;;;;;75.43;71.75;;;;;;;9.96;67.16;103793.78;5020170;28;20087;-71
2023/12/16 01:43:53;;;;;;;79.35;75.15;;;;;;;9.97;67.21;103787.38;5031606;28;20041;-72
2023/12/16 01:46:21;;;;;;;77.55;73.22;;;;;;;9.96;67.14;103785.69;5031741;28;20099;-71
2023/12/16 01:48:46;;;;;;;74.43;70.93;;;;;;;9.96;67.00;103783.00;5040571;28;20033;-72
2023/12/16 01:51:13;;;;;;;76.40;72.65;;;;;;;9.96;67.25;103775.72;5027571;28;20038;-70
2023/12/16 01:53:40;;;;;;;77.10;72.40;;;;;;;9.95;67.13;103782.16;5013340;28;20174;-71
2023/12/16 01:56:07;;;;;;;77.45;73.22;;;;;;;9.94;67.14;103785.84;5030940;28;20402;-71
2023/12/16 01:58:33;;;;;;;79.20;75.40;;;;;;;9.95;67.13;103786.69;5032106;28;20033;-71
2023/12/16 02:00:59;;;;;;;76.75;73.25;;;;;;;9.95;66.95;103790.25;5012958;28;20489;-71
2023/12/16 02:03:27;;;;;;;72.55;68.72;;;;;;;9.95;66.98;103792.97;5012738;28;20042;-71
2023/12/16 02:05:52;;;;;;;73.90;70.27;;;;;;;9.94;67.08;103788.53;5012862;28;20037;-72
2023/12/16 02:08:18;;;;;;;74.20;70.80;;;;;;;9.94;67.04;103785.00;5014720;28;20041;-72
2023/12/16 02:10:43;;;;;;;77.07;73.50;;;;;;;9.94;67.19;103796.66;5035784;28;20049;-71
2023/12/16 02:13:09;;;;;;;73.15;69.85;;;;;;;9.92;67.00;103790.56;5032079;28;20116;-71
2023/12/16 02:15:34;;;;;;;75.90;72.32;;;;;;;9.91;67.00;103798.84;5031007;28;20072;-71
2023/12/16 02:17:59;;;;;;;78.95;74.90;;;;;;;9.90;67.02;103792.59;5030894;28;20037;-71
2023/12/16 02:20:26;;;;;;;76.25;72.55;;;;;;;9.90;66.99;103784.50;5028683;28;20069;-71
2023/12/16 02:22:52;;;;;;;71.28;68.03;;;;;;;9.91;67.00;103785.34;5012530;28;20030;-70
2023/12/16 02:25:18;;;;;;;78.93;75.00;;;;;;;9.89;66.90;103773.84;5021345;28;20044;-72
2023/12/16 02:27:46;;;;;;;77.00;73.55;;;;;;;9.88;67.09;103773.00;5023228;28;20034;-71
2023/12/16 02:30:12;;;;;;;76.35;72.10;;;;;;;9.89;67.02;103780.09;5024673;28;20556;-72
2023/12/16 02:32:38;;;;;;;76.53;72.88;;;;;;;9.90;67.13;103786.31;5032097;28;20026;-72
2023/12/16 02:35:04;;;;;;;73.75;70.25;;;;;;;9.89;66.97;103779.25;5018206;28;20080;-71
2023/12/16 02:37:29;;;;;;;75.10;71.72;;;;;;;9.88;67.02;103782.97;5037169;28;20029;-71
2023/12/16 02:39:55;;;;;;;75.80;72.13;;;;;;;9.88;66.95;103783.81;5021206;28;20069;-71
2023/12/16 02:42:20;;;;;;;73.97;70.47;;;;;;;9.87;66.81;103776.69;5025898;28;20099;-71
2023/12/16 02:44:46;;;;;;;78.32;74.63;;;;;;;9.88;66.71;103780.28;5031509;28;20036;-71
2023/12/16 02:47:11;;;;;;;73.30;69.85;;;;;;;9.88;67.01;103781.13;5031106;28;20104;-71
2023/12/16 02:49:36;;;;;;;72.63;69.22;;;;;;;9.87;67.03;103781.25;5032210;28;20079;-73
2023/12/16 02:52:02;;;;;;;73.10;69.40;;;;;;;9.87;66.92;103783.97;5021650;28;20029;-70
2023/12/16 02:54:28;;;;;;;82.07;78.10;;;;;;;9.87;66.98;103784.81;5012842;28;20475;-72
2023/12/16 02:56:53;;;;;;;74.57;71.00;;;;;;;9.86;66.88;103785.81;5015809;28;20061;-71
2023/12/16 02:59:19;;;;;;;79.57;74.88;;;;;;;9.85;66.97;103778.75;5023809;28;20049;-71
2023/12/16 03:01:44;;;;;;;75.50;71.97;;;;;;;9.85;66.73;103781.44;5016899;28;20397;-71
2023/12/16 03:04:09;;;;;;;76.88;72.97;;;;;;;9.85;66.74;103784.16;5029576;28;20162;-71
2023/12/16 03:06:36;;;;;;;74.05;70.38;;;;;;;9.84;67.02;103790.53;5028795;28;20034;-71
2023/12/16 03:09:02;;;;;;;76.88;72.97;;;;;;;9.83;67.03;103788.03;5031299;28;20040;-72
2023/12/16 03:11:27;;;;;;;74.93;71.13;;;;;;;9.83;66.99;103788.84;5016626;28;20551;-71
2023/12/16 03:13:53;;;;;;;75.70;71.82;;;;;;;9.83;66.87;103780.75;5017439;28;20025;-70
2023/12/16 03:16:19;;;;;;;77.63;74.00;;;;;;;9.82;67.05;103780.91;5011570;28;20030;-72
2023/12/16 03:18:44;;;;;;;77.15;73.65;;;;;;;9.82;67.04;103773.66;5011678;28;20449;-72
2023/12/16 03:21:09;;;;;;;77.80;73.72;;;;;;;9.81;67.12;103774.66;5018718;28;20044;-71
2023/12/16 03:23:35;;;;;;;74.03;70.70;;;;;;;9.81;66.98;103777.38;5028547;28;20501;-71
2023/12/16 03:26:01;;;;;;;74.70;71.25;;;;;;;9.82;67.03;103778.22;5029230;28;20048;-70
2023/12/16 03:28:26;;;;;;;75.40;71.88;;;;;;;9.80;67.10;103783.75;5020497;28;20152;-72
2023/12/16 03:30:51;;;;;;;74.15;70.72;;;;;;;9.80;66.96;103789.16;5020554;28;20045;-72
2023/12/16 03:33:17;;;;;;;76.65;72.88;;;;;;;9.79;67.20;103790.19;5014051;28;20545;-72
2023/12/16 03:35:42;;;;;;;79.20;75.47;;;;;;;9.79;67.06;103792.03;5015892;28;20033;-72
2023/12/16 03:38:08;;;;;;;78.38;74.53;;;;;;;9.78;66.88;103793.91;5015670;28;20029;-72
2023/12/16 03:40:33;;;;;;;76.32;71.78;;;;;;;9.77;67.17;103789.50;5025484;28;20033;-72
2023/12/16 03:42:58;;;;;;;75.28;71.72;;;;;;;9.77;67.06;103784.09;5031721;28;20037;-71
2023/12/16 03:45:24;;;;;;;74.90;71.30;;;;;;;9.75;67.04;103781.56;5018914;28;20038;-71
2023/12/16 03:47:50;;;;;;;70.15;66.88;;;;;;;9.77;67.19;103780.56;5029838;28;20037;-71
2023/12/16 03:50:15;;;;;;;72.88;69.50;;;;;;;9.75;67.13;103780.69;5017682;28;20052;-72
2023/12/16 03:52:41;;;;;;;69.50;66.32;;;;;;;9.76;67.09;103790.50;5021114;28;20038;-71
2023/12/16 03:55:06;;;;;;;76.68;73.18;;;;;;;9.74;66.97;103782.56;5032914;28;20045;-71
2023/12/16 03:57:33;;;;;;;71.20;67.47;;;;;;;9.73;67.09;103780.03;5025289;28;20038;-71
2023/12/16 03:59:59;;;;;;;77.10;73.25;;;;;;;9.72;67.00;103781.03;5015348;28;20099;-70
2023/12/16 04:02:24;;;;;;;73.25;69.85;;;;;;;9.73;67.20;103788.16;5017120;28;20445;-71
2023/12/16 04:04:50;;;;;;;73.65;70.25;;;;;;;9.72;67.00;103783.72;5029902;28;20436;-72
2023/12/16 04:07:15;;;;;;;68.30;65.20;;;;;;;9.71;66.99;103787.44;5016311;28;20209;-71
2023/12/16 04:09:41;;;;;;;75.05;70.60;;;;;;;9.71;66.77;103790.16;5014585;28;20355;-71
2023/12/16 04:12:07;;;;;;;74.07;70.65;;;;;;;9.69;67.06;103787.59;5032731;28;20044;-72
2023/12/16 04:14:37;;;;;;;76.95;73.38;;;;;;;9.67;66.96;103789.63;5034540;28;20401;-72
2023/12/16 04:17:02;;;;;;;75.07;71.53;;;;;;;9.66;66.94;103792.50;5028780;28;20057;-71
2023/12/16 04:19:28;;;;;;;75.97;72.10;;;;;;;9.66;67.02;103795.19;5015496;28;20458;-71
2023/12/16 04:21:53;;;;;;;69.35;66.13;;;;;;;9.65;67.12;103793.47;5025834;28;20033;-71
2023/12/16 04:24:18;;;;;;;76.85;73.38;;;;;;;9.65;67.06;103791.66;5028718;28;20133;-71
2023/12/16 04:26:44;;;;;;;73.30;69.03;;;;;;;9.65;66.96;103798.88;5014734;28;20042;-71
2023/12/16 04:29:09;;;;;;;70.95;67.63;;;;;;;9.64;67.00;103797.19;5013401;28;20048;-71
2023/12/16 04:31:34;;;;;;;72.10;68.65;;;;;;;9.64;66.98;103789.94;5017130;28;20466;-71
2023/12/16 04:34:00;;;;;;;69.80;66.50;;;;;;;9.63;67.05;103782.03;5024673;28;20041;-71
2023/12/16 04:36:25;;;;;;;74.68;70.60;;;;;;;9.62;66.94;103777.63;4997132;28;20081;-71
2023/12/16 04:38:51;;;;;;;69.68;66.40;;;;;;;9.63;67.05;103785.56;5014345;28;20109;-71
2023/12/16 04:41:16;;;;;;;73.47;70.07;;;;;;;9.62;67.12;103775.75;5018131;28;20034;-71
2023/12/16 04:43:41;;;;;;;71.97;68.72;;;;;;;9.62;67.24;103770.34;5022620;28;20038;-71
2023/12/16 04:46:07;;;;;;;70.55;67.03;;;;;;;9.61;67.15;103773.25;5014580;28;20117;-70
2023/12/16 04:48:33;;;;;;;73.53;70.03;;;;;;;9.60;67.02;103783.19;5026050;28;20065;-71
2023/12/16 04:51:06;;;;;;;76.63;73.03;;;;;;;9.60;67.24;103768.84;5014431;28;20455;-71
2023/12/16 04:53:32;;;;;;;76.80;72.22;;;;;;;9.60;66.91;103760.75;5019676;28;20394;-71
2023/12/16 04:55:57;;;;;;;70.53;67.32;;;;;;;9.58;66.99;103758.22;5015241;28;20486;-72
2023/12/16 04:58:23;;;;;;;72.00;68.80;;;;;;;9.57;66.95;103759.22;5017171;28;20038;-71
2023/12/16 05:00:48;;;;;;;73.47;69.97;;;;;;;9.57;67.26;103767.31;5013580;28;20088;-71
2023/12/16 05:03:14;;;;;;;70.43;67.22;;;;;;;9.55;66.99;103769.34;5013361;28;20474;-72
2023/12/16 05:05:39;;;;;;;72.38;68.88;;;;;;;9.53;67.06;103766.78;5026464;28;20121;-70
2023/12/16 05:08:04;;;;;;;72.78;68.97;;;;;;;9.54;67.21;103775.72;5020372;28;20033;-71
2023/12/16 05:10:30;;;;;;;74.43;70.90;;;;;;;9.54;67.00;103781.97;5031748;28;20030;-70
2023/12/16 05:12:55;;;;;;;73.28;68.57;;;;;;;9.52;67.07;103775.91;5032535;28;20108;-72
2023/12/16 05:15:21;;;;;;;70.63;67.32;;;;;;;9.51;66.89;103776.06;5031402;28;20036;-71
2023/12/16 05:17:46;;;;;;;70.57;67.30;;;;;;;9.50;66.97;103772.53;5014732;28;20528;-72
2023/12/16 05:20:12;;;;;;;72.70;69.45;;;;;;;9.50;66.91;103775.22;5022794;28;20042;-71
2023/12/16 05:22:37;;;;;;;70.90;67.57;;;;;;;9.49;66.87;103784.31;5012294;28;20533;-70
2023/12/16 05:25:03;;;;;;;71.38;67.07;;;;;;;9.48;66.93;103785.31;5027367;28;20057;-71
2023/12/16 05:27:29;;;;;;;69.03;65.57;;;;;;;9.48;66.92;103781.78;5030288;28;20037;-71
2023/12/16 05:29:57;;;;;;;72.80;69.28;;;;;;;9.48;67.01;103781.78;5026757;28;20042;-71
2023/12/16 05:32:22;;;;;;;69.15;66.07;;;;;;;9.47;66.99;103777.38;5032383;28;20030;-70
2023/12/16 05:34:50;;;;;;;68.35;65.13;;;;;;;9.47;66.98;103778.22;5024205;28;20048;-71
2023/12/16 05:37:15;;;;;;;72.93;69.55;;;;;;;9.46;66.95;103781.09;5026392;28;20117;-72
2023/12/16 05:39:40;;;;;;;75.03;71.45;;;;;;;9.45;66.85;103780.25;5032597;28;20045;-72
2023/12/16 05:42:06;;;;;;;72.95;69.60;;;;;;;9.43;66.85;103787.66;5031410;28;20040;-70
2023/12/16 05:44:31;;;;;;;70.63;67.03;;;;;;;9.42;66.74;103788.66;5031398;28;20034;-72
2023/12/16 05:46:56;;;;;;;73.28;69.68;;;;;;;9.41;66.95;103786.97;5027396;28;20387;-71
2023/12/16 05:49:22;;;;;;;72.53;68.00;;;;;;;9.42;66.90;103787.81;5013373;28;20136;-71
2023/12/16 05:51:48;;;;;;;67.68;64.35;;;;;;;9.42;66.99;103793.19;5019790;28;20039;-71
2023/12/16 05:54:13;;;;;;;69.60;66.40;;;;;;;9.40;66.70;103785.28;5013362;28;20394;-71
2023/12/16 05:56:38;;;;;;;70.38;66.95;;;;;;;9.39;66.82;103783.56;5031354;28;20102;-71
2023/12/16 05:59:04;;;;;;;68.43;64.50;;;;;;;9.39;66.80;103777.34;5022362;28;20160;-71
2023/12/16 06:01:30;;;;;;;67.82;64.72;;;;;;;9.37;66.89;103771.25;5013037;28;20379;-72
2023/12/16 06:03:55;;;;;;;69.22;66.07;;;;;;;9.37;67.05;103771.25;5012838;28;20029;-70
2023/12/16 06:06:20;;;;;;;71.85;67.75;;;;;;;9.36;66.87;103773.13;5018562;28;20037;-72
2023/12/16 06:08:46;;;;;;;73.05;68.90;;;;;;;9.35;66.95;103771.44;5030669;28;20112;-72
2023/12/16 06:11:12;;;;;;;69.30;66.15;;;;;;;9.35;66.65;103776.81;5015517;28;20432;-71
2023/12/16 06:13:39;;;;;;;73.25;69.60;;;;;;;9.35;66.79;103776.81;5012187;28;20032;-72
2023/12/16 06:16:05;;;;;;;69.10;65.97;;;;;;;9.35;66.91;103781.34;5012701;28;20117;-71
2023/12/16 06:18:30;;;;;;;71.32;68.05;;;;;;;9.34;66.99;103767.03;5035818;28;20095;-72
2023/12/16 06:20:56;;;;;;;69.90;66.43;;;;;;;9.34;66.92;103772.41;5016856;28;20030;-72
2023/12/16 06:23:21;;;;;;;71.22;67.65;;;;;;;9.32;66.94;103783.38;5012298;28;20053;-71
2023/12/16 06:25:46;;;;;;;68.28;65.03;;;;;;;9.32;66.90;103788.78;5011390;28;20192;-72
2023/12/16 06:28:12;;;;;;;70.43;66.40;;;;;;;9.31;67.05;103786.22;5027150;28;20045;-71
2023/12/16 06:30:39;;;;;;;67.18;64.07;;;;;;;9.30;66.83;103779.16;5027020;28;20453;-71
2023/12/16 06:33:04;;;;;;;70.65;66.68;;;;;;;9.31;66.87;103786.22;5030469;28;20030;-71
2023/12/16 06:35:30;;;;;;;72.68;69.18;;;;;;;9.29;66.93;103788.25;5031008;28;20029;-71
2023/12/16 06:37:55;;;;;;;71.32;68.03;;;;;;;9.28;67.12;103792.78;5029474;28;20037;-72
2023/12/16 06:40:21;;;;;;;67.50;64.45;;;;;;;9.27;66.82;103793.81;5022647;28;20041;-71
2023/12/16 06:42:46;;;;;;;67.68;64.57;;;;;;;9.27;66.86;103787.53;5011809;28;20447;-71
2023/12/16 06:45:11;;;;;;;70.72;67.55;;;;;;;9.25;66.82;103795.81;5014889;28;20044;-71
2023/12/16 06:47:40;;;;;;;68.53;65.38;;;;;;;9.24;66.91;103787.88;5027763;28;20121;-70
2023/12/16 06:50:07;;;;;;;74.28;70.70;;;;;;;9.23;66.87;103788.88;5025265;28;20067;-71
2023/12/16 06:52:32;;;;;;;65.18;62.25;;;;;;;9.22;67.01;103781.78;5030564;28;20136;-71
2023/12/16 06:54:57;;;;;;;68.63;65.22;;;;;;;9.21;67.01;103783.66;5029842;28;20112;-70
2023/12/16 06:57:23;;;;;;;69.55;66.28;;;;;;;9.20;66.81;103787.34;5018855;28;20038;-72
2023/12/16 06:59:48;;;;;;;73.25;69.25;;;;;;;9.20;66.88;103789.22;5033623;28;20278;-71
2023/12/16 07:02:13;;;;;;;70.82;67.63;;;;;;;9.18;66.93;103789.34;5011621;28;20030;-70
2023/12/16 07:04:39;;;;;;;70.47;67.30;;;;;;;9.19;66.77;103792.91;5018327;28;20041;-72
2023/12/16 07:07:04;;;;;;;68.65;65.30;;;;;;;9.17;66.74;103794.91;5011341;28;20025;-71
2023/12/16 07:09:29;;;;;;;67.10;63.80;;;;;;;9.16;66.89;103798.63;5022480;28;20441;-71
2023/12/16 07:11:55;;;;;;;68.32;65.13;;;;;;;9.14;66.80;103789.84;5017430;28;20131;-71
2023/12/16 07:14:21;;;;;;;67.10;63.35;;;;;;;9.13;66.92;103797.09;5018078;28;20083;-71
2023/12/16 07:16:46;;;;;;;66.00;62.90;;;;;;;9.14;66.83;103792.53;5020409;28;20041;-74
2023/12/16 07:19:11;;;;;;;67.30;63.47;;;;;;;9.13;67.02;103797.09;5031264;28;20034;-72
2023/12/16 07:21:41;;;;;;;66.57;63.33;;;;;;;9.14;66.86;103798.75;5019799;28;20117;-71
2023/12/16 07:24:06;;;;;;;66.63;63.35;;;;;;;9.15;66.69;103802.28;5028109;28;20056;-71
2023/12/16 07:26:32;;;;;;;68.95;65.82;;;;;;;9.14;66.84;103804.16;5030003;28;20034;-72
2023/12/16 07:28:57;;;;;;;68.03;64.63;;;;;;;9.13;66.82;103799.78;5030544;28;20040;-75
2023/12/16 07:31:23;;;;;;;66.50;63.38;;;;;;;9.10;66.68;103814.44;5004872;28;20410;-71
2023/12/16 07:33:49;;;;;;;68.72;65.53;;;;;;;9.09;66.93;103806.47;5025489;28;20045;-72
2023/12/16 07:36:15;;;;;;;69.10;66.00;;;;;;;9.07;66.77;103816.56;5029916;28;20030;-70
2023/12/16 07:38:41;;;;;;;69.85;66.35;;;;;;;9.05;66.79;103819.44;5029941;28;20033;-71
2023/12/16 07:41:07;;;;;;;62.67;59.58;;;;;;;9.05;66.80;103826.69;5038268;28;20087;-72
2023/12/16 07:43:32;;;;;;;71.15;67.63;;;;;;;9.03;66.98;103821.44;5021572;28;20397;-71
2023/12/16 07:45:58;;;;;;;67.40;64.20;;;;;;;9.04;66.90;103820.44;5028747;28;20099;-72
2023/12/16 07:48:24;;;;;;;70.75;67.53;;;;;;;9.04;66.89;103824.97;5028110;28;20029;-71
2023/12/16 07:50:53;;;;;;;67.55;64.38;;;;;;;9.05;66.72;103818.59;5035394;28;20033;-74
2023/12/16 07:53:21;;;;;;;67.00;63.92;;;;;;;9.05;66.91;103822.13;5029815;28;20493;-71
2023/12/16 07:55:47;;;;;;;66.88;63.47;;;;;;;9.05;66.81;103818.59;5030566;28;20040;-72
2023/12/16 07:58:14;;;;;;;69.13;65.95;;;;;;;9.05;66.87;103818.59;5007322;28;20042;-72
2023/12/16 08:00:39;;;;;;;69.63;66.00;;;;;;;9.05;66.89;103824.84;5030613;28;20041;-74
2023/12/16 08:03:05;;;;;;;68.78;65.32;;;;;;;9.03;66.88;103832.22;5011076;28;20046;-73
2023/12/16 08:05:30;;;;;;;66.47;63.47;;;;;;;9.02;66.76;103829.69;5011089;28;20368;-70
2023/12/16 08:07:56;;;;;;;67.95;64.80;;;;;;;9.00;66.83;103837.09;5016598;28;20112;-70
2023/12/16 08:10:21;;;;;;;66.03;62.97;;;;;;;8.99;66.83;103840.78;5043702;28;20037;-70
2023/12/16 08:12:46;;;;;;;68.88;65.78;;;;;;;8.98;66.81;103852.59;5010366;28;20038;-73
2023/12/16 08:15:12;;;;;;;66.40;63.42;;;;;;;8.97;66.83;103853.56;5011939;28;20108;-72
2023/12/16 08:17:37;;;;;;;67.40;64.25;;;;;;;8.96;66.85;103857.28;5012412;28;20056;-71
2023/12/16 08:20:05;;;;;;;68.13;64.60;;;;;;;8.95;66.81;103853.75;5029976;28;20670;-70
2023/12/16 08:22:32;;;;;;;;;;;;;;;8.95;66.92;103863.69;5045838;28;20098;-69
2023/12/16 08:24:58;;;;;;;61.50;58.35;;;;;;;8.93;66.83;103863.00;5014347;28;19923;-69
2023/12/16 08:27:23;;;;;;;64.75;61.75;;;;;;;8.92;66.68;103866.66;5014829;28;20042;-73
2023/12/16 08:29:49;;;;;;;69.07;65.63;;;;;;;8.90;66.80;103853.38;5026762;28;20120;-73
2023/12/16 08:32:15;;;;;;;67.88;64.68;;;;;;;8.90;66.75;103860.59;5033732;28;20448;-70
2023/12/16 08:34:41;;;;;;;60.88;58.05;;;;;;;8.87;66.99;103859.91;5033014;28;20387;-70
2023/12/16 08:37:06;;;;;;;66.93;63.38;;;;;;;8.88;66.92;103852.66;5015600;28;20033;-71
2023/12/16 08:39:32;;;;;;;68.75;64.47;;;;;;;8.87;66.94;103857.22;5021949;28;20147;-72
2023/12/16 08:41:57;;;;;;;65.72;62.58;;;;;;;8.87;66.79;103856.38;5027803;28;20466;-71
2023/12/16 08:44:22;;;;;;;65.97;62.67;;;;;;;8.86;67.07;103854.66;5016549;28;20042;-71
2023/12/16 08:46:48;;;;;;;63.85;60.95;;;;;;;8.86;66.92;103849.28;5015883;28;20034;-71
2023/12/16 08:49:13;;;;;;;71.47;68.23;;;;;;;8.85;67.13;103851.13;5031831;28;20390;-71
2023/12/16 08:51:39;;;;;;;66.72;63.72;;;;;;;8.87;67.11;103845.59;5033292;28;20067;-70
2023/12/16 08:54:04;;;;;;;68.50;65.25;;;;;;;8.86;67.26;103842.03;5027931;28;20108;-71
2023/12/16 08:56:30;;;;;;;68.07;64.22;;;;;;;8.87;67.27;103843.75;5054784;28;20038;-71
2023/12/16 08:58:55;;;;;;;71.93;68.10;;;;;;;8.87;67.33;103846.44;5025104;28;20033;-71
2023/12/16 09:01:20;;;;;;;67.93;64.82;;;;;;;8.88;67.12;103850.81;5054027;28;20036;-70
2023/12/16 09:03:46;;;;;;;68.63;65.03;;;;;;;8.89;67.22;103854.34;5053842;28;20417;-70
2023/12/16 09:06:11;;;;;;;68.25;64.63;;;;;;;8.90;67.00;103860.59;5018788;28;20041;-70
2023/12/16 09:08:37;;;;;;;66.07;62.67;;;;;;;8.90;67.24;103861.44;5015565;28;20029;-70
2023/12/16 09:11:03;;;;;;;65.03;61.83;;;;;;;8.91;67.08;103860.44;5057462;28;20043;-70
2023/12/16 09:13:28;;;;;;;65.07;62.05;;;;;;;8.90;67.07;103871.38;5024109;28;20041;-71
2023/12/16 09:15:54;;;;;;;67.00;63.60;;;;;;;8.91;67.18;103876.59;5023447;28;20403;-72
2023/12/16 09:18:19;;;;;;;66.70;63.30;;;;;;;8.90;67.23;103869.53;5026459;28;20041;-72
2023/12/16 09:20:44;;;;;;;66.35;61.42;;;;;;;8.90;67.05;103869.53;5025334;28;20080;-72
2023/12/16 09:23:10;;;;;;;73.45;68.20;;;;;;;8.90;67.24;103869.53;5014141;28;20435;-73
2023/12/16 09:25:35;;;;;;;71.45;67.15;;;;;;;8.90;67.28;103876.78;5036837;28;20089;-71
2023/12/16 09:28:00;;;;;;;71.35;67.75;;;;;;;8.90;67.27;103874.94;5022002;28;20037;-70
2023/12/16 09:30:26;;;;;;;68.15;65.05;;;;;;;8.90;67.24;103874.94;5014795;28;20034;-72
2023/12/16 09:32:51;;;;;;;65.43;62.25;;;;;;;8.92;67.19;103866.66;5013094;28;20069;-71
2023/12/16 09:35:17;;;;;;;66.25;62.58;;;;;;;8.93;66.99;103865.69;5028720;28;20056;-71
2023/12/16 09:37:43;;;;;;;69.75;65.38;;;;;;;8.93;67.15;103869.22;5017101;28;20572;-70
2023/12/16 09:40:08;;;;;;;68.00;64.72;;;;;;;8.93;67.12;103874.63;5031577;28;20120;-71
2023/12/16 09:42:38;;;;;;;65.90;62.80;;;;;;;8.94;67.27;103875.44;5013493;28;20386;-71
2023/12/16 09:45:04;;;;;;;67.57;64.28;;;;;;;8.94;67.31;103878.16;5019442;28;20033;-70
2023/12/16 09:47:30;;;;;;;65.95;62.65;;;;;;;8.95;67.32;103878.00;5016667;28;20038;-72
2023/12/16 09:50:00;;;;;;;67.35;64.25;;;;;;;8.96;67.29;103877.00;5028661;28;20389;-72
2023/12/16 09:52:28;;;;;;;61.35;58.55;;;;;;;8.96;67.20;103877.00;5013454;28;20573;-72
2023/12/16 09:54:54;;;;;;;64.38;61.40;;;;;;;8.96;67.39;103884.25;5014656;28;20109;-72
2023/12/16 09:57:22;;;;;;;64.57;61.28;;;;;;;8.97;67.46;103885.91;5030800;28;20468;-71
2023/12/16 09:59:48;;;;;;;64.85;61.92;;;;;;;8.98;67.32;103882.25;5022287;28;20108;-71
2023/12/16 10:02:27;;;;;;;68.20;64.78;;;;;;;8.98;67.36;103888.47;5032687;28;20041;-70
2023/12/16 10:04:56;;;;;;;;;;;;;;;8.99;67.31;103890.16;5027492;28;20034;-71
2023/12/16 10:07:22;;;;;;;60.90;57.95;;;;;;;8.98;67.59;103884.94;5013461;28;19992;-70
2023/12/16 10:09:47;;;;;;;62.65;59.55;;;;;;;9.00;67.25;103881.09;5023190;28;20517;-71
2023/12/16 10:12:12;;;;;;;66.80;63.60;;;;;;;9.01;67.43;103876.53;5021349;28;20034;-71
2023/12/16 10:14:47;;;;;;;69.60;65.97;;;;;;;9.00;67.36;103882.94;5017391;28;20041;-70
2023/12/16 10:17:12;;;;;;;71.68;67.78;;;;;;;9.02;67.35;103889.00;5012359;28;20037;-72
2023/12/16 10:19:37;;;;;;;70.47;66.65;;;;;;;9.01;67.52;103896.25;5013019;28;20049;-71
2023/12/16 10:22:03;;;;;;;66.95;63.63;;;;;;;9.02;67.58;103894.38;5014367;28;20034;-71
2023/12/16 10:24:28;;;;;;;69.25;65.40;;;;;;;9.04;67.45;103892.38;5011495;28;20074;-73
2023/12/16 10:26:54;;;;;;;67.82;63.75;;;;;;;9.04;67.48;103892.38;5026193;28;20057;-71
2023/12/16 10:29:20;;;;;;;71.78;68.35;;;;;;;9.06;67.58;103893.09;5034490;28;20041;-72
2023/12/16 10:31:45;;;;;;;69.90;66.65;;;;;;;9.08;67.67;103894.63;5016227;28;20063;-71
2023/12/16 10:34:11;;;;;;;67.90;64.70;;;;;;;9.11;67.50;103888.06;5023554;28;20467;-71
2023/12/16 10:36:36;;;;;;;71.07;67.32;;;;;;;9.13;67.51;103891.47;5026710;28;20488;-72
2023/12/16 10:39:02;;;;;;;71.60;67.90;;;;;;;9.14;67.44;103890.47;5028258;28;20029;-75
2023/12/16 10:41:27;;;;;;;71.40;67.93;;;;;;;9.15;67.57;103891.28;5026585;28;20482;-70
2023/12/16 10:43:53;;;;;;;75.75;71.93;;;;;;;9.16;67.50;103883.06;5009726;28;20135;-71
2023/12/16 10:46:20;;;;;;;72.13;67.68;;;;;;;9.18;67.54;103882.91;5010133;28;20026;-70
2023/12/16 10:48:51;;;;;;;71.45;68.15;;;;;;;9.19;67.43;103880.03;5011127;28;20490;-71
2023/12/16 10:51:18;;;;;;;74.18;69.82;;;;;;;9.19;67.39;103879.22;5018966;28;20035;-71
2023/12/16 10:54:07;;;;;;;69.45;66.05;;;;;;;9.20;67.39;103879.06;5014920;28;20034;-70
2023/12/16 10:56:38;;;;;;;71.53;67.82;;;;;;;9.22;67.41;103877.06;5026434;28;20088;-72
2023/12/16 10:59:05;;;;;;;73.93;70.10;;;;;;;9.24;67.43;103869.63;5024524;28;20034;-73
2023/12/16 11:01:34;;;;;;;70.85;67.28;;;;;;;9.26;67.58;103882.97;5031036;28;20183;-70
2023/12/16 11:04:17;;;;;;;69.35;66.13;;;;;;;9.26;67.70;103883.81;5028591;28;20065;-72
2023/12/16 11:07:04;;;;;;;70.57;66.68;;;;;;;9.26;67.62;103875.72;5011244;28;20370;-70
2023/12/16 11:09:30;;;;;;;70.82;66.28;;;;;;;9.27;67.64;103868.47;5028827;28;20295;-70
2023/12/16 11:11:59;;;;;;;69.22;65.72;;;;;;;9.29;67.50;103869.16;5029812;28;20071;-71